Time;durP1;ratioP1;P1;durP2;ratioP2;P2;SDS_P1;SDS_P2;PMS_P1;PMS_P2;Temp;Humidity;BMP_temperature;BMP_pressure;BME280_temperature;BME280_humidity;BME280_pressure;Samples;Min_cycle;Max_cycle;Signal;HPM_P1;HPM_P2
2023/10/25 00:02:09;;;;;;;7.45;2.90;;;;;;;9.81;100.00;99967.28;5063507;28;20073;-86
2023/10/25 00:04:34;;;;;;;7.20;2.97;;;;;;;9.89;100.00;99966.13;5088641;28;20032;-86
2023/10/25 00:06:59;;;;;;;7.53;2.92;;;;;;;9.94;100.00;99950.94;5067056;28;20028;-86
2023/10/25 00:09:25;;;;;;;9.32;2.65;;;;;;;9.82;100.00;99954.91;5062433;28;20039;-85
2023/10/25 00:11:50;;;;;;;8.68;2.97;;;;;;;9.80;100.00;99960.09;5069508;28;20047;-86
2023/10/25 00:14:15;;;;;;;6.25;3.40;;;;;;;9.86;100.00;99955.72;5063179;28;20131;-86
2023/10/25 00:16:41;;;;;;;6.53;3.70;;;;;;;9.74;100.00;99953.31;5064222;28;20123;-85
2023/10/25 00:19:06;;;;;;;3.72;2.60;;;;;;;9.74;100.00;99958.91;5066198;28;20016;-86
2023/10/25 00:21:31;;;;;;;9.45;2.75;;;;;;;9.74;100.00;99965.28;5079397;28;20036;-86
2023/10/25 00:23:57;;;;;;;7.35;3.05;;;;;;;9.82;100.00;99965.28;5064816;28;20062;-87
2023/10/25 00:26:22;;;;;;;4.70;3.83;;;;;;;9.85;100.00;99970.09;5086389;28;20067;-86
2023/10/25 00:28:47;;;;;;;9.80;3.45;;;;;;;9.93;100.00;99966.94;5060485;28;20026;-86
2023/10/25 00:31:15;;;;;;;6.55;2.72;;;;;;;9.83;100.00;99959.31;5084307;28;20036;-86
2023/10/25 00:33:41;;;;;;;9.20;2.97;;;;;;;9.79;100.00;99955.69;5070366;28;20033;-86
2023/10/25 00:36:06;;;;;;;8.43;4.07;;;;;;;9.80;100.00;99965.69;5078247;28;20497;-86
2023/10/25 00:38:31;;;;;;;8.30;3.28;;;;;;;9.90;100.00;99959.31;5064595;28;20020;-86
2023/10/25 00:40:57;;;;;;;7.65;3.97;;;;;;;9.85;100.00;99964.50;5068088;28;20023;-87
2023/10/25 00:43:23;;;;;;;7.88;3.38;;;;;;;9.74;100.00;99958.91;5062980;28;20066;-86
2023/10/25 00:46:11;;;;;;;8.60;3.40;;;;;;;9.79;100.00;99963.28;5065526;28;20027;-86
2023/10/25 00:48:38;;;;;;;5.97;3.25;;;;;;;9.83;100.00;99956.50;5079889;28;20024;-87
2023/10/25 00:51:04;;;;;;;11.70;3.72;;;;;;;9.90;100.00;99956.53;5063569;28;20058;-86
2023/10/25 00:53:35;;;;;;;10.55;4.03;;;;;;;9.97;100.00;99961.31;5067760;28;20032;-86
2023/10/25 00:56:01;;;;;;;10.95;4.07;;;;;;;9.95;100.00;99952.53;5086906;28;20028;-86
2023/10/25 00:58:28;;;;;;;7.38;3.63;;;;;;;9.96;100.00;99965.31;5087421;28;20051;-86
2023/10/25 01:00:55;;;;;;;7.75;3.67;;;;;;;9.81;100.00;99944.94;5081325;28;20028;-86
2023/10/25 01:03:21;;;;;;;9.75;4.03;;;;;;;9.73;100.00;99946.09;5067722;28;20036;-86
2023/10/25 01:05:49;;;;;;;7.40;4.20;;;;;;;9.84;100.00;99960.09;5060885;28;20039;-86
2023/10/25 01:08:19;;;;;;;8.52;3.53;;;;;;;9.79;100.00;99955.69;5061742;28;20040;-86
2023/10/25 01:10:48;;;;;;;5.70;3.67;;;;;;;9.82;100.00;99959.69;5061265;28;20063;-86
2023/10/25 01:13:14;;;;;;;6.82;4.43;;;;;;;9.82;100.00;99971.66;5074793;28;20036;-86
2023/10/25 01:15:39;;;;;;;11.27;4.93;;;;;;;9.80;100.00;99967.69;5063422;28;20717;-86
2023/10/25 01:18:05;;;;;;;13.75;4.68;;;;;;;9.70;100.00;99961.66;5085584;28;20035;-86
2023/10/25 01:20:32;;;;;;;9.82;4.65;;;;;;;9.74;100.00;99954.09;5060843;28;20120;-86
2023/10/25 01:22:57;;;;;;;7.60;3.78;;;;;;;9.55;100.00;99944.06;5062463;28;20081;-86
2023/10/25 01:25:23;;;;;;;7.60;4.15;;;;;;;9.78;100.00;99937.31;5065140;28;20515;-87
2023/10/25 01:27:48;;;;;;;5.97;3.55;;;;;;;9.80;100.00;99951.69;5062898;28;20036;-86
2023/10/25 01:30:13;;;;;;;5.00;3.85;;;;;;;9.90;100.00;99950.13;5066155;28;20024;-86
2023/10/25 01:32:39;;;;;;;5.60;3.72;;;;;;;10.03;100.00;99953.34;5084649;28;20032;-86
2023/10/25 01:35:05;;;;;;;5.38;3.15;;;;;;;10.00;100.00;99954.94;5061673;28;20028;-86
2023/10/25 01:37:30;;;;;;;9.35;3.80;;;;;;;9.99;100.00;99956.13;5082629;28;20024;-86
2023/10/25 01:39:55;;;;;;;6.80;4.20;;;;;;;9.99;100.00;99958.94;5060231;28;20025;-86
2023/10/25 01:42:21;;;;;;;10.65;3.72;;;;;;;10.00;100.00;99956.97;5057912;28;20115;-86
2023/10/25 01:44:46;;;;;;;9.15;3.88;;;;;;;9.89;100.00;99952.13;5067963;28;20439;-86
2023/10/25 01:47:11;;;;;;;10.63;4.03;;;;;;;9.96;100.00;99954.16;5088743;28;20450;-86
2023/10/25 01:49:36;;;;;;;5.75;4.05;;;;;;;9.84;100.00;99949.72;5061202;28;20618;-86
2023/10/25 01:52:02;;;;;;;5.70;3.53;;;;;;;9.90;100.00;99962.09;5076520;28;20027;-86
2023/10/25 01:54:27;;;;;;;6.72;4.32;;;;;;;9.65;100.00;99952.88;5065680;28;20542;-86
2023/10/25 01:56:53;;;;;;;7.78;4.30;;;;;;;9.72;100.00;99952.91;5066718;28;20076;-87
2023/10/25 01:59:18;;;;;;;7.13;4.13;;;;;;;9.60;100.00;99947.66;5066314;28;20165;-87
2023/10/25 02:01:43;;;;;;;8.23;4.38;;;;;;;9.66;100.00;99951.69;5061932;28;20343;-86
2023/10/25 02:04:09;;;;;;;7.97;4.65;;;;;;;9.62;100.00;99951.66;5065932;28;20028;-86
2023/10/25 02:06:34;;;;;;;11.10;4.15;;;;;;;9.75;100.00;99954.91;5060349;28;20020;-86
2023/10/25 02:08:59;;;;;;;10.38;4.05;;;;;;;9.74;100.00;99947.72;5064116;28;20028;-86
2023/10/25 02:11:25;;;;;;;8.63;3.75;;;;;;;9.76;100.00;99946.13;5063398;28;20028;-86
2023/10/25 02:13:50;;;;;;;8.55;4.53;;;;;;;9.73;100.00;99948.91;5058519;28;20032;-87
2023/10/25 02:16:17;;;;;;;11.75;4.70;;;;;;;9.71;100.00;99954.09;5082454;28;20443;-87
2023/10/25 02:18:43;;;;;;;9.82;4.78;;;;;;;9.59;100.00;99946.06;5065946;28;20526;-87
2023/10/25 02:21:10;;;;;;;5.70;3.80;;;;;;;9.59;100.00;99929.28;5062353;28;20477;-86
2023/10/25 02:23:35;;;;;;;8.93;4.30;;;;;;;9.59;100.00;99934.88;5064245;28;20542;-86
2023/10/25 02:26:01;;;;;;;7.55;4.47;;;;;;;9.62;100.00;99939.69;5062886;28;20024;-86
2023/10/25 02:28:29;;;;;;;5.93;4.60;;;;;;;9.41;100.00;99930.03;5083990;28;20020;-86
2023/10/25 02:30:54;;;;;;;10.32;4.82;;;;;;;9.51;100.00;99917.31;5064632;28;20470;-86
2023/10/25 02:33:20;;;;;;;5.93;4.20;;;;;;;9.54;100.00;99922.09;5064957;28;20043;-86
2023/10/25 02:35:45;;;;;;;6.90;3.97;;;;;;;9.62;100.00;99926.50;5084950;28;20066;-86
2023/10/25 02:38:10;;;;;;;9.73;4.93;;;;;;;9.53;100.00;99937.28;5081418;28;20043;-86
2023/10/25 02:40:36;;;;;;;10.88;5.13;;;;;;;9.62;100.00;99928.53;5080066;28;20070;-86
2023/10/25 02:43:02;;;;;;;5.93;4.50;;;;;;;9.68;100.00;99921.34;5060500;28;20028;-86
2023/10/25 02:45:27;;;;;;;9.82;5.05;;;;;;;9.56;100.00;99920.50;5083738;28;20028;-86
2023/10/25 02:47:57;;;;;;;7.88;4.60;;;;;;;9.60;100.00;99922.53;5064962;28;20031;-86
2023/10/25 02:50:22;;;;;;;6.50;3.95;;;;;;;9.67;100.00;99925.31;5061426;28;20394;-87
2023/10/25 02:52:48;;;;;;;5.72;3.97;;;;;;;9.63;100.00;99918.94;5076393;28;20063;-87
2023/10/25 02:55:16;;;;;;;10.88;4.57;;;;;;;9.63;100.00;99924.50;5081463;28;20138;-87
2023/10/25 02:57:42;;;;;;;13.38;4.75;;;;;;;9.51;100.00;99904.13;5080286;28;20131;-86
2023/10/25 03:00:12;;;;;;;9.00;4.90;;;;;;;9.59;100.00;99915.31;5061818;28;20624;-86
2023/10/25 03:02:38;;;;;;;6.43;4.40;;;;;;;9.57;100.00;99910.94;5060721;28;20043;-86
2023/10/25 03:05:03;;;;;;;6.60;4.28;;;;;;;9.49;100.00;99903.72;5084609;28;20036;-86
2023/10/25 03:07:29;;;;;;;8.35;4.47;;;;;;;9.51;100.00;99906.13;5058948;28;20028;-87
2023/10/25 03:09:54;;;;;;;8.70;3.88;;;;;;;9.42;100.00;99898.09;5057630;28;20381;-86
2023/10/25 03:12:19;;;;;;;7.78;4.45;;;;;;;9.44;100.00;99895.72;5062369;28;20119;-86
2023/10/25 03:14:45;;;;;;;10.60;3.42;;;;;;;9.48;100.00;99896.53;5078979;28;20600;-87
2023/10/25 03:17:10;;;;;;;5.68;3.70;;;;;;;9.43;100.00;99882.16;5062538;28;20040;-86
2023/10/25 03:19:35;;;;;;;9.13;3.97;;;;;;;9.28;100.00;99882.13;5066756;28;20016;-87
2023/10/25 03:22:03;;;;;;;6.40;3.72;;;;;;;9.39;100.00;99886.94;5080779;28;20428;-87
2023/10/25 03:24:29;;;;;;;7.30;4.32;;;;;;;9.35;100.00;99886.91;5060830;28;20130;-86
2023/10/25 03:26:55;;;;;;;9.30;4.00;;;;;;;9.22;100.00;99882.91;5063507;28;20067;-86
2023/10/25 03:29:20;;;;;;;6.80;4.22;;;;;;;9.38;100.00;99886.13;5069239;28;20086;-87
2023/10/25 03:31:46;;;;;;;4.90;3.70;;;;;;;9.32;100.00;99887.72;5069370;28;20142;-86
2023/10/25 03:34:11;;;;;;;8.05;4.22;;;;;;;9.22;100.00;99882.91;5063346;28;20119;-87
2023/10/25 03:36:36;;;;;;;6.25;3.35;;;;;;;9.09;100.00;99880.44;5070464;28;20047;-86
2023/10/25 03:39:02;;;;;;;6.18;3.13;;;;;;;9.22;100.00;99882.91;5065374;28;20020;-86
2023/10/25 03:41:27;;;;;;;5.13;3.28;;;;;;;9.07;100.00;99874.47;5064875;28;20031;-86
2023/10/25 03:43:53;;;;;;;7.43;3.72;;;;;;;9.09;100.00;99891.63;5086552;28;20485;-86
2023/10/25 03:46:18;;;;;;;7.95;3.45;;;;;;;9.16;100.00;99880.47;5083228;28;20093;-86
2023/10/25 03:48:43;;;;;;;6.60;4.13;;;;;;;9.22;100.00;99885.69;5061760;28;20110;-85
2023/10/25 03:51:10;;;;;;;6.07;3.30;;;;;;;9.16;100.00;99880.47;5066285;28;20032;-86
2023/10/25 03:53:36;;;;;;;8.50;4.72;;;;;;;9.09;100.00;99869.28;5070361;28;20355;-86
2023/10/25 03:56:02;;;;;;;7.28;3.85;;;;;;;9.06;100.00;99881.22;5065161;28;20020;-86
2023/10/25 03:58:28;;;;;;;7.90;3.72;;;;;;;9.15;100.00;99878.88;5087901;28;20024;-86
2023/10/25 04:01:01;;;;;;;5.88;3.65;;;;;;;9.20;100.00;99890.88;5064052;28;20032;-86
2023/10/25 04:03:27;;;;;;;9.20;3.75;;;;;;;9.21;100.00;99878.50;5063879;28;20042;-86
2023/10/25 04:05:53;;;;;;;8.70;4.32;;;;;;;8.99;100.00;99872.81;5060830;28;20674;-86
2023/10/25 04:08:18;;;;;;;5.35;3.92;;;;;;;9.02;100.00;99869.22;5078072;28;20060;-86
2023/10/25 04:10:54;;;;;;;7.63;4.20;;;;;;;8.64;100.00;99877.00;5064908;28;20035;-87
2023/10/25 04:13:20;;;;;;;6.65;3.40;;;;;;;8.87;100.00;99873.16;5077271;28;20040;-87
2023/10/25 04:15:56;;;;;;;7.28;3.33;;;;;;;8.95;100.00;99870.00;5063923;28;20480;-86
2023/10/25 04:18:23;;;;;;;10.07;4.10;;;;;;;8.65;100.00;99861.88;5080450;28;20028;-86
2023/10/25 04:20:49;;;;;;;6.82;4.20;;;;;;;8.62;100.00;99861.84;5063004;28;20032;-86
2023/10/25 04:23:14;;;;;;;6.60;4.13;;;;;;;8.70;100.00;99857.91;5081016;28;20039;-86
2023/10/25 04:25:39;;;;;;;5.32;3.92;;;;;;;8.77;100.00;99857.97;5078115;28;20036;-86
2023/10/25 04:28:05;;;;;;;6.53;4.28;;;;;;;8.81;100.00;99860.75;5083649;28;20112;-86
2023/10/25 04:30:32;;;;;;;6.47;3.97;;;;;;;8.84;100.00;99851.63;5067284;28;20053;-87
2023/10/25 04:32:58;;;;;;;6.95;4.05;;;;;;;8.88;100.00;99838.50;5065725;28;20940;-87
2023/10/25 04:35:23;;;;;;;6.72;4.32;;;;;;;8.84;100.00;99830.09;5069343;28;20035;-87
2023/10/25 04:37:48;;;;;;;9.95;4.85;;;;;;;9.00;100.00;99832.53;5058846;28;20623;-87
2023/10/25 04:40:14;;;;;;;5.82;3.80;;;;;;;9.05;100.00;99831.38;5082392;28;20060;-87
2023/10/25 04:42:39;;;;;;;5.22;3.72;;;;;;;8.93;100.00;99822.16;5080898;28;20143;-87
2023/10/25 04:45:05;;;;;;;6.88;3.45;;;;;;;8.97;100.00;99816.59;5083493;28;20028;-88
2023/10/25 04:47:30;;;;;;;11.43;4.85;;;;;;;8.89;100.00;99834.50;5063908;28;20058;-87
2023/10/25 04:49:57;;;;;;;8.10;3.80;;;;;;;9.00;100.00;99837.31;5063116;28;20028;-87
2023/10/25 04:52:23;;;;;;;7.43;5.35;;;;;;;8.83;100.00;99825.69;5065834;28;20066;-87
2023/10/25 04:54:49;;;;;;;11.00;4.93;;;;;;;8.84;100.00;99823.72;5084534;28;20016;-86
2023/10/25 04:57:14;;;;;;;8.95;4.30;;;;;;;8.70;100.00;99813.28;5056495;28;20037;-87
2023/10/25 04:59:40;;;;;;;8.90;4.40;;;;;;;8.63;100.00;99827.22;5079315;28;20020;-87
2023/10/25 05:02:05;;;;;;;7.07;4.97;;;;;;;8.71;100.00;99815.69;5066918;28;20028;-87
2023/10/25 05:04:30;;;;;;;8.63;4.63;;;;;;;8.59;100.00;99824.38;5061989;28;20028;-87
2023/10/25 05:06:56;;;;;;;8.20;4.82;;;;;;;8.65;100.00;99817.25;5062140;28;20035;-87
2023/10/25 05:09:22;;;;;;;8.55;4.68;;;;;;;8.68;100.00;99810.88;5060140;28;20028;-87
2023/10/25 05:12:01;;;;;;;8.20;4.60;;;;;;;8.70;100.00;99802.91;5085992;28;20059;-87
2023/10/25 05:14:26;;;;;;;9.07;5.00;;;;;;;8.60;100.00;99798.09;5058940;28;20422;-87
2023/10/25 05:16:52;;;;;;;8.73;4.38;;;;;;;8.64;100.00;99798.09;5063280;28;20085;-86
2023/10/25 05:19:18;;;;;;;17.15;5.20;;;;;;;8.67;100.00;99809.28;5066484;28;20031;-87
2023/10/25 05:21:47;;;;;;;7.70;3.92;;;;;;;8.63;100.00;99800.09;5060217;28;20038;-87
2023/10/25 05:24:13;;;;;;;5.68;4.35;;;;;;;8.64;100.00;99798.91;5061724;28;20031;-88
2023/10/25 05:26:39;;;;;;;8.95;4.80;;;;;;;8.65;100.00;99800.50;5061298;28;20046;-87
2023/10/25 05:29:04;;;;;;;7.75;4.70;;;;;;;8.48;100.00;99790.06;5060796;28;20046;-86
2023/10/25 05:31:34;;;;;;;10.80;4.55;;;;;;;8.55;100.00;99796.47;5069906;28;20028;-87
2023/10/25 05:34:00;;;;;;;10.15;4.60;;;;;;;8.60;100.00;99795.31;5071280;28;20493;-86
2023/10/25 05:36:25;;;;;;;9.98;4.85;;;;;;;8.49;100.00;99786.88;5082892;28;20024;-87
2023/10/25 05:38:51;;;;;;;7.68;4.40;;;;;;;8.52;100.00;99782.53;5057956;28;20032;-87
2023/10/25 05:41:22;;;;;;;7.97;4.72;;;;;;;8.48;100.00;99784.50;5060556;28;20020;-87
2023/10/25 05:44:00;;;;;;;7.00;4.28;;;;;;;8.35;100.00;99787.56;5059725;28;20030;-86
2023/10/25 05:46:25;;;;;;;9.82;5.75;;;;;;;8.52;100.00;99796.47;5058709;28;20034;-87
2023/10/25 05:48:51;;;;;;;7.43;4.70;;;;;;;8.44;100.00;99778.09;5061947;28;20025;-87
2023/10/25 05:51:16;;;;;;;7.22;5.03;;;;;;;8.45;100.00;99782.47;5055306;28;20047;-86
2023/10/25 05:53:42;;;;;;;9.57;4.63;;;;;;;8.55;100.00;99795.69;5057527;28;20386;-86
2023/10/25 05:56:08;;;;;;;7.15;5.43;;;;;;;8.51;100.00;99783.69;5078327;28;20036;-86
2023/10/25 05:58:33;;;;;;;10.90;4.80;;;;;;;8.58;100.00;99786.53;5059027;28;20388;-87
2023/10/25 06:01:03;;;;;;;7.75;5.30;;;;;;;8.60;100.00;99786.94;5062653;28;20678;-87
2023/10/25 06:03:29;;;;;;;9.15;4.60;;;;;;;8.53;100.00;99793.28;5059652;28;20072;-86
2023/10/25 06:05:58;;;;;;;7.72;5.05;;;;;;;8.45;100.00;99774.09;5084332;28;20028;-86
2023/10/25 06:08:24;;;;;;;7.45;4.05;;;;;;;8.39;100.00;99770.06;5079409;28;20028;-86
2023/10/25 06:10:50;;;;;;;8.70;4.47;;;;;;;8.54;100.00;99783.72;5062255;28;20036;-88
2023/10/25 06:13:16;;;;;;;7.47;4.85;;;;;;;8.50;100.00;99785.69;5058938;28;20396;-87
2023/10/25 06:15:41;;;;;;;9.15;5.00;;;;;;;8.52;100.00;99788.09;5062978;28;20047;-87
2023/10/25 06:18:09;;;;;;;12.32;4.90;;;;;;;8.51;100.00;99786.50;5079444;28;20068;-87
2023/10/25 06:20:34;;;;;;;9.48;4.53;;;;;;;8.57;100.00;99801.66;5062414;28;20724;-87
2023/10/25 06:23:00;;;;;;;8.35;4.53;;;;;;;8.63;100.00;99786.16;5082006;28;20035;-86
2023/10/25 06:25:27;;;;;;;10.38;5.00;;;;;;;8.67;100.00;99795.34;5060664;28;20112;-87
2023/10/25 06:27:53;;;;;;;7.60;5.03;;;;;;;8.41;100.00;99778.84;5065891;28;20039;-87
2023/10/25 06:30:18;;;;;;;8.77;5.13;;;;;;;8.34;100.00;99802.69;5067236;28;20474;-86
2023/10/25 06:32:43;;;;;;;8.73;5.38;;;;;;;8.33;100.00;99776.00;5081462;28;20040;-88
2023/10/25 06:35:09;;;;;;;10.95;5.03;;;;;;;8.14;100.00;99779.88;5055997;28;20115;-87
2023/10/25 06:37:35;;;;;;;9.13;4.47;;;;;;;8.38;100.00;99782.41;5063668;28;20059;-87
2023/10/25 06:40:00;;;;;;;8.90;5.03;;;;;;;8.37;100.00;99790.00;5061168;28;20101;-87
2023/10/25 06:42:26;;;;;;;9.93;4.28;;;;;;;8.26;100.00;99775.16;5059418;28;20024;-88
2023/10/25 06:44:51;;;;;;;7.13;4.53;;;;;;;8.34;100.00;99785.16;5079107;28;20554;-87
2023/10/25 06:47:17;;;;;;;8.80;5.07;;;;;;;8.27;100.00;99783.16;5076989;28;20024;-87
2023/10/25 06:49:42;;;;;;;8.10;4.20;;;;;;;8.25;100.00;99788.31;5078920;28;20028;-87
2023/10/25 06:52:09;;;;;;;15.43;4.95;;;;;;;8.48;100.00;99784.50;5059288;28;20025;-87
2023/10/25 06:54:34;;;;;;;12.57;4.70;;;;;;;8.50;100.00;99774.53;5063861;28;20077;-86
2023/10/25 06:57:00;;;;;;;9.57;5.80;;;;;;;8.48;100.00;99774.13;5058669;28;20024;-86
2023/10/25 06:59:26;;;;;;;7.85;4.97;;;;;;;8.56;100.00;99766.59;5065042;28;20016;-87
2023/10/25 07:02:04;;;;;;;6.75;4.70;;;;;;;8.59;100.00;99765.81;5083473;28;20055;-87
2023/10/25 07:04:33;;;;;;;6.20;3.70;;;;;;;8.50;100.00;99755.03;5060158;28;20028;-89
2023/10/25 07:06:58;;;;;;;11.77;4.43;;;;;;;8.74;100.00;99753.50;5063932;28;20547;-88
2023/10/25 07:09:24;;;;;;;11.07;4.97;;;;;;;8.71;100.00;99754.31;5059810;28;20024;-88
2023/10/25 07:11:52;;;;;;;10.25;5.70;;;;;;;8.55;100.00;99757.41;5084282;28;20114;-88
2023/10/25 07:14:21;;;;;;;8.90;4.85;;;;;;;8.57;100.00;99734.72;5065158;28;20028;-88
2023/10/25 07:16:47;;;;;;;8.50;4.65;;;;;;;8.64;100.00;99743.09;5068095;28;20036;-88
2023/10/25 07:19:13;;;;;;;10.43;4.82;;;;;;;8.64;100.00;99748.69;5058944;28;20047;-89
2023/10/25 07:21:38;;;;;;;8.60;5.03;;;;;;;8.64;100.00;99751.47;5065373;28;20516;-89
2023/10/25 07:24:04;;;;;;;7.50;4.60;;;;;;;8.88;100.00;99754.78;5062858;28;20128;-89
2023/10/25 07:26:31;;;;;;;8.23;4.88;;;;;;;8.68;100.00;99732.75;5067806;28;20032;-90
2023/10/25 07:28:56;;;;;;;7.63;4.40;;;;;;;8.63;100.00;99733.16;5066461;28;20119;-88
2023/10/25 07:31:28;;;;;;;9.38;5.00;;;;;;;8.57;100.00;99734.72;5085593;28;20765;-89
2023/10/25 07:33:53;;;;;;;9.05;4.53;;;;;;;8.60;100.00;99725.59;5063171;28;20138;-89
2023/10/25 07:36:18;;;;;;;9.07;4.38;;;;;;;8.66;100.00;99737.13;5063181;28;20111;-89
2023/10/25 07:38:44;;;;;;;7.65;4.90;;;;;;;8.74;100.00;99735.97;5079082;28;20027;-90
2023/10/25 07:41:09;;;;;;;7.03;4.38;;;;;;;8.62;100.00;99720.41;5063721;28;20012;-89
2023/10/25 07:43:41;;;;;;;9.20;4.60;;;;;;;8.74;100.00;99730.41;5061782;28;20028;-88
2023/10/25 07:46:07;;;;;;;5.57;4.60;;;;;;;8.67;100.00;99725.59;5060795;28;20453;-89
2023/10/25 07:48:33;;;;;;;8.85;4.63;;;;;;;8.93;100.00;99737.63;5060636;28;20027;-88
2023/10/25 07:51:12;;;;;;;7.13;4.82;;;;;;;8.89;100.00;99726.44;5081541;28;20474;-88
2023/10/25 07:53:38;;;;;;;6.53;3.92;;;;;;;8.66;100.00;99690.50;5065841;28;20501;-89
2023/10/25 07:56:04;;;;;;;7.18;4.78;;;;;;;8.86;100.00;99718.88;5066814;28;20032;-88
2023/10/25 07:58:29;;;;;;;11.55;4.53;;;;;;;8.75;100.00;99692.94;5061566;28;20379;-89
2023/10/25 08:00:57;;;;;;;7.32;4.25;;;;;;;8.94;100.00;99700.16;5061737;28;20028;-89
2023/10/25 08:03:26;;;;;;;8.35;4.72;;;;;;;8.88;100.00;99696.16;5063747;28;20082;-88
2023/10/25 08:05:51;;;;;;;7.10;4.78;;;;;;;8.85;100.00;99711.69;5066704;28;20032;-89
2023/10/25 08:08:17;;;;;;;10.50;4.43;;;;;;;8.82;100.00;99698.53;5069012;28;20032;-89
2023/10/25 08:10:57;;;;;;;8.68;5.28;;;;;;;8.66;100.00;99670.97;5054793;28;20047;-89
2023/10/25 08:13:23;;;;;;;8.00;4.10;;;;;;;8.92;100.00;99685.81;5067705;28;20024;-90
2023/10/25 08:15:55;;;;;;;5.43;3.92;;;;;;;8.91;100.00;99670.25;5074841;28;20040;-89
2023/10/25 08:18:21;;;;;;;;;;;;;;;9.10;100.00;99697.78;5064677;28;20075;-89
2023/10/25 08:20:46;;;;;;;8.85;4.43;;;;;;;9.03;100.00;99692.22;5072490;28;20373;-89
2023/10/25 08:23:12;;;;;;;11.07;4.95;;;;;;;9.02;100.00;99693.38;5074613;28;20040;-89
2023/10/25 08:25:37;;;;;;;7.97;4.63;;;;;;;8.90;100.00;99677.84;5077396;28;20096;-88
2023/10/25 08:28:03;;;;;;;15.75;6.72;;;;;;;9.05;100.00;99687.03;5070714;28;20020;-89
2023/10/25 08:30:28;;;;;;;11.10;4.40;;;;;;;9.04;100.00;99660.28;5073426;28;20537;-89
2023/10/25 08:32:56;;;;;;;12.65;5.45;;;;;;;8.98;100.00;99661.91;5072622;28;20029;-88
2023/10/25 08:35:22;;;;;;;14.77;6.55;;;;;;;9.13;100.00;99666.31;5067659;28;20416;-90
2023/10/25 08:37:47;;;;;;;8.88;4.70;;;;;;;9.30;100.00;99680.69;5067948;28;20119;-89
2023/10/25 08:40:14;;;;;;;9.50;5.80;;;;;;;9.26;100.00;99665.91;5085258;28;20024;-90
2023/10/25 08:42:46;;;;;;;8.00;4.85;;;;;;;9.36;100.00;99676.28;5065638;28;20115;-89
2023/10/25 08:45:14;;;;;;;9.98;5.65;;;;;;;9.31;100.00;99662.72;5068096;28;20080;-89
2023/10/25 08:47:45;;;;;;;12.40;6.10;;;;;;;9.38;100.00;99657.09;5082815;28;20086;-89
2023/10/25 08:50:13;;;;;;;9.68;5.40;;;;;;;9.41;100.00;99653.53;5063960;28;20043;-89
2023/10/25 08:52:44;;;;;;;8.95;5.97;;;;;;;9.48;100.00;99663.91;5068372;28;20015;-88
2023/10/25 08:55:10;;;;;;;10.10;5.30;;;;;;;9.50;100.00;99658.72;5065503;28;20422;-89
2023/10/25 08:57:39;;;;;;;9.30;5.10;;;;;;;9.54;100.00;99659.50;5087974;28;20474;-89
2023/10/25 09:00:14;;;;;;;10.80;5.68;;;;;;;9.57;100.00;99665.09;5069373;28;20093;-88
2023/10/25 09:02:39;;;;;;;8.55;4.75;;;;;;;9.60;100.00;99651.53;5069963;28;20095;-89
2023/10/25 09:05:08;;;;;;;11.55;5.72;;;;;;;9.63;100.00;99639.53;5069672;28;20027;-89
2023/10/25 09:07:50;;;;;;;12.45;5.75;;;;;;;9.69;100.00;99657.50;5065779;28;20538;-89
2023/10/25 09:10:17;;;;;;;9.20;6.43;;;;;;;9.75;100.00;99658.69;5071520;28;20486;-89
2023/10/25 09:12:43;;;;;;;7.07;4.88;;;;;;;9.52;100.00;99623.59;5067652;28;20114;-90
2023/10/25 09:15:12;;;;;;;12.88;5.45;;;;;;;9.57;100.00;99625.16;5071447;28;20038;-90
2023/10/25 09:17:37;;;;;;;11.07;5.88;;;;;;;9.74;100.00;99645.91;5066081;28;20375;-90
2023/10/25 09:20:07;;;;;;;10.63;6.00;;;;;;;9.68;100.00;99637.13;5068876;28;20061;-90
2023/10/25 09:22:32;;;;;;;7.80;5.32;;;;;;;9.77;100.00;99645.09;5068292;28;20394;-90
2023/10/25 09:25:00;;;;;;;9.45;5.93;;;;;;;9.76;100.00;99632.31;5069660;28;20079;-89
2023/10/25 09:27:26;;;;;;;11.95;6.68;;;;;;;9.90;100.00;99654.63;5069045;28;20066;-89
2023/10/25 09:29:52;;;;;;;12.25;5.70;;;;;;;9.89;100.00;99649.47;5082657;28;20024;-89
2023/10/25 09:32:20;;;;;;;10.15;6.05;;;;;;;9.76;100.00;99626.72;5065543;28;20042;-89
2023/10/25 09:34:46;;;;;;;11.40;6.25;;;;;;;9.86;100.00;99639.88;5059729;28;20425;-89
2023/10/25 09:37:12;;;;;;;15.02;6.20;;;;;;;10.00;100.00;99643.84;5065677;28;20031;-89
2023/10/25 09:39:37;;;;;;;11.95;5.80;;;;;;;10.02;100.00;99649.84;5072454;28;20562;-89
2023/10/25 09:42:11;;;;;;;11.10;5.82;;;;;;;10.02;100.00;99649.84;5068866;28;20030;-90
2023/10/25 09:44:50;;;;;;;12.20;6.07;;;;;;;10.01;100.00;99643.44;5080420;28;20469;-89
2023/10/25 09:47:18;;;;;;;14.40;5.68;;;;;;;9.98;100.00;99625.47;5080715;28;20028;-89
2023/10/25 09:49:48;;;;;;;10.55;5.97;;;;;;;9.99;100.00;99634.66;5079014;28;20024;-90
2023/10/25 09:52:19;;;;;;;11.07;6.00;;;;;;;10.07;100.00;99644.59;5080608;28;20031;-89
2023/10/25 09:54:51;;;;;;;6.57;5.22;;;;;;;10.06;100.00;99645.03;5079885;28;20107;-90
2023/10/25 09:57:21;;;;;;;7.70;4.50;;;;;;;10.06;100.00;99642.25;5063807;28;20020;-89
2023/10/25 09:59:47;;;;;;;12.45;5.78;;;;;;;10.05;100.00;99615.47;5083319;28;20055;-89
2023/10/25 10:02:25;;;;;;;13.20;5.72;;;;;;;10.20;100.00;99621.78;5068167;28;20032;-89
2023/10/25 10:04:59;;;;;;;10.32;5.18;;;;;;;10.03;100.00;99601.09;5063417;28;20621;-89
2023/10/25 10:07:30;;;;;;;10.98;6.10;;;;;;;10.18;100.00;99627.78;5063845;28;20118;-89
2023/10/25 10:10:11;;;;;;;19.90;6.15;;;;;;;10.19;100.00;99623.81;5073593;28;20508;-89
2023/10/25 10:12:37;;;;;;;10.85;5.22;;;;;;;10.07;100.00;99618.66;5065508;28;20024;-89
2023/10/25 10:15:03;;;;;;;10.07;5.00;;;;;;;10.10;100.00;99617.84;5070201;28;20047;-90
2023/10/25 10:17:34;;;;;;;10.32;5.35;;;;;;;10.13;100.00;99603.84;5084143;28;20509;-89
2023/10/25 10:20:05;;;;;;;8.63;6.28;;;;;;;10.17;100.00;99615.81;5062256;28;20028;-89
2023/10/25 10:22:30;;;;;;;10.30;5.88;;;;;;;10.22;100.00;99603.41;5067312;28;20063;-89
2023/10/25 10:25:03;;;;;;;10.95;5.30;;;;;;;10.12;100.00;99581.91;5060484;28;20474;-89
2023/10/25 10:27:41;;;;;;;9.60;5.22;;;;;;;10.26;100.00;99604.19;5081832;28;20078;-89
2023/10/25 10:30:41;;;;;;;7.70;4.57;;;;;;;10.27;100.00;99600.19;5077436;28;20076;-89
2023/10/25 10:33:13;;;;;;;8.18;4.38;;;;;;;10.15;100.00;99586.66;5063116;28;20031;-89
2023/10/25 10:35:48;;;;;;;8.57;4.32;;;;;;;10.27;100.00;99600.19;5063014;28;20031;-89
2023/10/25 10:38:14;;;;;;;7.25;4.82;;;;;;;10.21;100.00;99581.47;5063422;28;20695;-89
2023/10/25 10:40:39;;;;;;;8.45;4.07;;;;;;;10.28;100.00;99592.59;5061534;28;20039;-89
2023/10/25 10:43:06;;;;;;;8.05;4.65;;;;;;;10.21;100.00;99579.44;5065312;28;20036;-90
2023/10/25 10:45:32;;;;;;;8.25;3.60;;;;;;;10.33;100.00;99589.41;5063370;28;20103;-90
2023/10/25 10:48:02;;;;;;;7.85;5.05;;;;;;;10.32;100.00;99590.59;5065948;28;20042;-89
2023/10/25 10:50:28;;;;;;;8.18;4.82;;;;;;;10.34;100.00;99597.38;5062828;28;20034;-90
2023/10/25 10:52:54;;;;;;;11.38;5.07;;;;;;;10.23;100.00;99577.03;5060004;28;20401;-89
2023/10/25 10:55:24;;;;;;;9.30;5.15;;;;;;;10.33;100.00;99586.59;5060162;28;20094;-90
2023/10/25 10:57:50;;;;;;;14.15;6.07;;;;;;;10.34;100.00;99577.81;5059802;28;20035;-88
2023/10/25 11:00:17;;;;;;;7.80;4.75;;;;;;;10.32;100.00;99576.63;5076174;28;20024;-88
2023/10/25 11:02:47;;;;;;;9.10;4.70;;;;;;;10.26;100.00;99569.84;5055049;28;20100;-88
2023/10/25 11:05:14;;;;;;;7.18;3.97;;;;;;;10.22;100.00;99553.06;5055815;28;20032;-89
2023/10/25 11:07:40;;;;;;;9.02;3.85;;;;;;;10.32;100.00;99565.44;5063146;28;20052;-88
2023/10/25 11:10:06;;;;;;;7.82;4.93;;;;;;;10.14;100.00;99534.72;5041320;28;20174;-89
2023/10/25 11:12:46;;;;;;;10.30;4.85;;;;;;;10.22;100.00;99536.28;5058123;28;20088;-88
2023/10/25 11:15:25;;;;;;;5.80;4.40;;;;;;;10.08;100.00;99514.03;5067083;28;20699;-88
2023/10/25 11:17:50;;;;;;;12.38;5.70;;;;;;;10.13;100.00;99519.19;5066591;28;20042;-88
2023/10/25 11:20:16;;;;;;;7.13;4.55;;;;;;;10.26;100.00;99553.06;5056083;28;20024;-88
2023/10/25 11:22:41;;;;;;;10.55;4.78;;;;;;;10.28;100.00;99533.88;5080280;28;20385;-88
2023/10/25 11:25:22;;;;;;;7.82;4.70;;;;;;;10.34;100.00;99544.25;5066796;28;20024;-89
2023/10/25 11:27:47;;;;;;;11.38;5.28;;;;;;;10.22;100.00;99525.09;5060704;28;20039;-87
2023/10/25 11:30:13;;;;;;;6.20;3.80;;;;;;;10.35;100.00;99534.66;5080814;28;20405;-86